sensor_id;sensor_type;location;lat;lon;timestamp;P1;durP1;ratioP1;P2;durP2;ratioP2
12784;SDS011;6456;42.680;23.260;2023-05-07T00:01:35;10.03;;;6.47;;
12784;SDS011;6456;42.680;23.260;2023-05-07T00:04:02;7.63;;;6.60;;
12784;SDS011;6456;42.680;23.260;2023-05-07T00:06:31;6.90;;;6.20;;
12784;SDS011;6456;42.680;23.260;2023-05-07T00:08:58;8.27;;;6.30;;
12784;SDS011;6456;42.680;23.260;2023-05-07T00:11:26;8.67;;;6.93;;
12784;SDS011;6456;42.680;23.260;2023-05-07T00:13:53;9.07;;;6.70;;
12784;SDS011;6456;42.680;23.260;2023-05-07T00:16:20;8.70;;;6.83;;
12784;SDS011;6456;42.680;23.260;2023-05-07T00:18:46;8.57;;;6.37;;
12784;SDS011;6456;42.680;23.260;2023-05-07T00:21:13;7.33;;;6.63;;
12784;SDS011;6456;42.680;23.260;2023-05-07T00:23:42;6.97;;;6.23;;
12784;SDS011;6456;42.680;23.260;2023-05-07T00:26:08;8.10;;;6.00;;
12784;SDS011;6456;42.680;23.260;2023-05-07T00:28:35;7.03;;;6.33;;
12784;SDS011;6456;42.680;23.260;2023-05-07T00:31:02;6.60;;;6.00;;
12784;SDS011;6456;42.680;23.260;2023-05-07T00:33:29;8.73;;;6.37;;
12784;SDS011;6456;42.680;23.260;2023-05-07T00:35:56;6.47;;;5.87;;
12784;SDS011;6456;42.680;23.260;2023-05-07T00:38:23;6.80;;;6.00;;
12784;SDS011;6456;42.680;23.260;2023-05-07T00:40:51;7.10;;;6.00;;
12784;SDS011;6456;42.680;23.260;2023-05-07T00:43:18;7.60;;;6.50;;
12784;SDS011;6456;42.680;23.260;2023-05-07T00:45:45;7.10;;;6.40;;
12784;SDS011;6456;42.680;23.260;2023-05-07T00:48:12;10.27;;;6.50;;
12784;SDS011;6456;42.680;23.260;2023-05-07T00:50:39;8.30;;;6.60;;
12784;SDS011;6456;42.680;23.260;2023-05-07T00:53:06;7.27;;;6.57;;
12784;SDS011;6456;42.680;23.260;2023-05-07T00:55:33;8.97;;;7.23;;
12784;SDS011;6456;42.680;23.260;2023-05-07T00:58:04;7.50;;;6.80;;
12784;SDS011;6456;42.680;23.260;2023-05-07T01:00:31;8.87;;;7.13;;
12784;SDS011;6456;42.680;23.260;2023-05-07T01:02:58;6.70;;;6.07;;
12784;SDS011;6456;42.680;23.260;2023-05-07T01:05:25;6.90;;;6.20;;
12784;SDS011;6456;42.680;23.260;2023-05-07T01:07:55;8.63;;;7.23;;
12784;SDS011;6456;42.680;23.260;2023-05-07T01:10:23;15.27;;;8.53;;
12784;SDS011;6456;42.680;23.260;2023-05-07T01:12:51;10.20;;;7.00;;
12784;SDS011;6456;42.680;23.260;2023-05-07T01:15:21;8.77;;;6.97;;
12784;SDS011;6456;42.680;23.260;2023-05-07T01:17:48;8.07;;;6.80;;
12784;SDS011;6456;42.680;23.260;2023-05-07T01:20:15;9.80;;;6.57;;
12784;SDS011;6456;42.680;23.260;2023-05-07T01:22:43;6.30;;;5.67;;
12784;SDS011;6456;42.680;23.260;2023-05-07T01:25:11;6.33;;;5.30;;
12784;SDS011;6456;42.680;23.260;2023-05-07T01:27:38;6.80;;;5.60;;
12784;SDS011;6456;42.680;23.260;2023-05-07T01:30:06;5.80;;;5.30;;
12784;SDS011;6456;42.680;23.260;2023-05-07T01:32:36;6.20;;;5.60;;
12784;SDS011;6456;42.680;23.260;2023-05-07T01:35:09;6.13;;;5.40;;
12784;SDS011;6456;42.680;23.260;2023-05-07T01:37:40;7.20;;;5.27;;
12784;SDS011;6456;42.680;23.260;2023-05-07T01:40:09;17.30;;;11.60;;
12784;SDS011;6456;42.680;23.260;2023-05-07T01:42:37;10.33;;;8.43;;
12784;SDS011;6456;42.680;23.260;2023-05-07T01:45:04;7.47;;;6.20;;
12784;SDS011;6456;42.680;23.260;2023-05-07T01:47:32;6.20;;;5.60;;
12784;SDS011;6456;42.680;23.260;2023-05-07T01:50:00;6.63;;;5.90;;
12784;SDS011;6456;42.680;23.260;2023-05-07T01:52:27;7.23;;;5.43;;
12784;SDS011;6456;42.680;23.260;2023-05-07T01:54:54;6.30;;;5.63;;
12784;SDS011;6456;42.680;23.260;2023-05-07T01:57:22;6.20;;;5.60;;
12784;SDS011;6456;42.680;23.260;2023-05-07T01:59:49;7.13;;;6.10;;
12784;SDS011;6456;42.680;23.260;2023-05-07T02:02:16;7.40;;;6.07;;
12784;SDS011;6456;42.680;23.260;2023-05-07T02:04:43;9.27;;;6.73;;
12784;SDS011;6456;42.680;23.260;2023-05-07T02:07:10;7.50;;;6.73;;
12784;SDS011;6456;42.680;23.260;2023-05-07T02:09:38;9.23;;;6.97;;
12784;SDS011;6456;42.680;23.260;2023-05-07T02:12:05;9.40;;;7.10;;
12784;SDS011;6456;42.680;23.260;2023-05-07T02:14:33;7.90;;;7.10;;
12784;SDS011;6456;42.680;23.260;2023-05-07T02:17:00;7.93;;;7.07;;
12784;SDS011;6456;42.680;23.260;2023-05-07T02:19:27;8.03;;;7.23;;
12784;SDS011;6456;42.680;23.260;2023-05-07T02:21:54;7.87;;;7.17;;
12784;SDS011;6456;42.680;23.260;2023-05-07T02:24:21;8.60;;;7.53;;
12784;SDS011;6456;42.680;23.260;2023-05-07T02:26:48;7.87;;;7.07;;
12784;SDS011;6456;42.680;23.260;2023-05-07T02:29:14;7.93;;;7.13;;
12784;SDS011;6456;42.680;23.260;2023-05-07T02:31:43;8.10;;;7.30;;
12784;SDS011;6456;42.680;23.260;2023-05-07T02:34:10;9.40;;;7.83;;
12784;SDS011;6456;42.680;23.260;2023-05-07T02:36:37;8.07;;;7.00;;
12784;SDS011;6456;42.680;23.260;2023-05-07T02:39:03;8.33;;;6.70;;
12784;SDS011;6456;42.680;23.260;2023-05-07T02:41:30;9.00;;;8.10;;
12784;SDS011;6456;42.680;23.260;2023-05-07T02:43:57;11.03;;;8.27;;
12784;SDS011;6456;42.680;23.260;2023-05-07T02:46:24;10.13;;;7.97;;
12784;SDS011;6456;42.680;23.260;2023-05-07T02:48:53;11.60;;;8.03;;
12784;SDS011;6456;42.680;23.260;2023-05-07T02:51:20;10.40;;;8.50;;
12784;SDS011;6456;42.680;23.260;2023-05-07T02:53:48;8.80;;;7.90;;
12784;SDS011;6456;42.680;23.260;2023-05-07T02:56:15;9.87;;;8.47;;
12784;SDS011;6456;42.680;23.260;2023-05-07T02:58:42;9.47;;;8.47;;
12784;SDS011;6456;42.680;23.260;2023-05-07T03:01:09;8.63;;;7.60;;
12784;SDS011;6456;42.680;23.260;2023-05-07T03:03:37;9.80;;;8.80;;
12784;SDS011;6456;42.680;23.260;2023-05-07T03:06:05;9.37;;;8.37;;
12784;SDS011;6456;42.680;23.260;2023-05-07T03:08:32;11.27;;;8.47;;
12784;SDS011;6456;42.680;23.260;2023-05-07T03:10:59;9.70;;;8.53;;
12784;SDS011;6456;42.680;23.260;2023-05-07T03:13:26;10.07;;;8.43;;
12784;SDS011;6456;42.680;23.260;2023-05-07T03:15:53;9.90;;;8.90;;
12784;SDS011;6456;42.680;23.260;2023-05-07T03:18:20;10.83;;;8.70;;
12784;SDS011;6456;42.680;23.260;2023-05-07T03:20:47;9.67;;;8.40;;
12784;SDS011;6456;42.680;23.260;2023-05-07T03:23:17;9.67;;;8.43;;
12784;SDS011;6456;42.680;23.260;2023-05-07T03:25:44;10.00;;;8.60;;
12784;SDS011;6456;42.680;23.260;2023-05-07T03:28:11;8.40;;;7.50;;
12784;SDS011;6456;42.680;23.260;2023-05-07T03:30:38;9.80;;;8.33;;
12784;SDS011;6456;42.680;23.260;2023-05-07T03:33:05;11.97;;;8.47;;
12784;SDS011;6456;42.680;23.260;2023-05-07T03:35:32;9.70;;;8.70;;
12784;SDS011;6456;42.680;23.260;2023-05-07T03:37:58;10.70;;;8.10;;
12784;SDS011;6456;42.680;23.260;2023-05-07T03:40:27;9.03;;;7.90;;
12784;SDS011;6456;42.680;23.260;2023-05-07T03:42:54;9.50;;;8.43;;
12784;SDS011;6456;42.680;23.260;2023-05-07T03:45:21;9.17;;;8.17;;
12784;SDS011;6456;42.680;23.260;2023-05-07T03:47:48;10.83;;;8.40;;
12784;SDS011;6456;42.680;23.260;2023-05-07T03:50:15;9.27;;;8.17;;
12784;SDS011;6456;42.680;23.260;2023-05-07T03:52:42;9.13;;;8.20;;
12784;SDS011;6456;42.680;23.260;2023-05-07T03:55:09;9.83;;;8.17;;
12784;SDS011;6456;42.680;23.260;2023-05-07T03:57:37;9.27;;;8.27;;
12784;SDS011;6456;42.680;23.260;2023-05-07T04:00:05;12.20;;;8.27;;
12784;SDS011;6456;42.680;23.260;2023-05-07T04:02:33;8.77;;;7.87;;
12784;SDS011;6456;42.680;23.260;2023-05-07T04:05:00;9.80;;;8.43;;
12784;SDS011;6456;42.680;23.260;2023-05-07T04:07:27;11.87;;;8.30;;
12784;SDS011;6456;42.680;23.260;2023-05-07T04:09:54;9.53;;;8.53;;
12784;SDS011;6456;42.680;23.260;2023-05-07T04:12:21;9.63;;;8.33;;
12784;SDS011;6456;42.680;23.260;2023-05-07T04:14:49;10.50;;;8.37;;
12784;SDS011;6456;42.680;23.260;2023-05-07T04:17:15;11.03;;;8.13;;
12784;SDS011;6456;42.680;23.260;2023-05-07T04:19:43;9.70;;;8.23;;
12784;SDS011;6456;42.680;23.260;2023-05-07T04:22:13;8.50;;;7.33;;
12784;SDS011;6456;42.680;23.260;2023-05-07T04:24:40;8.80;;;7.90;;
12784;SDS011;6456;42.680;23.260;2023-05-07T04:27:07;10.90;;;8.40;;
12784;SDS011;6456;42.680;23.260;2023-05-07T04:29:34;9.77;;;7.87;;
12784;SDS011;6456;42.680;23.260;2023-05-07T04:32:02;8.90;;;7.37;;
12784;SDS011;6456;42.680;23.260;2023-05-07T04:34:29;8.77;;;7.87;;
12784;SDS011;6456;42.680;23.260;2023-05-07T04:36:57;11.83;;;8.00;;
12784;SDS011;6456;42.680;23.260;2023-05-07T04:39:25;11.70;;;7.57;;
12784;SDS011;6456;42.680;23.260;2023-05-07T04:41:52;9.50;;;8.30;;
12784;SDS011;6456;42.680;23.260;2023-05-07T04:44:19;8.70;;;7.57;;
12784;SDS011;6456;42.680;23.260;2023-05-07T04:46:46;10.03;;;7.70;;
12784;SDS011;6456;42.680;23.260;2023-05-07T04:49:14;9.10;;;8.20;;
12784;SDS011;6456;42.680;23.260;2023-05-07T04:51:41;8.93;;;7.93;;
12784;SDS011;6456;42.680;23.260;2023-05-07T04:54:08;8.33;;;7.33;;
12784;SDS011;6456;42.680;23.260;2023-05-07T04:56:35;9.97;;;7.70;;
12784;SDS011;6456;42.680;23.260;2023-05-07T04:59:02;9.07;;;7.70;;
12784;SDS011;6456;42.680;23.260;2023-05-07T05:01:28;9.90;;;7.53;;
12784;SDS011;6456;42.680;23.260;2023-05-07T05:03:55;9.10;;;8.20;;
12784;SDS011;6456;42.680;23.260;2023-05-07T05:06:23;8.83;;;7.93;;
12784;SDS011;6456;42.680;23.260;2023-05-07T05:08:50;8.80;;;7.90;;
12784;SDS011;6456;42.680;23.260;2023-05-07T05:11:17;9.63;;;8.00;;
12784;SDS011;6456;42.680;23.260;2023-05-07T05:13:44;9.47;;;8.47;;
12784;SDS011;6456;42.680;23.260;2023-05-07T05:16:13;10.83;;;8.00;;
12784;SDS011;6456;42.680;23.260;2023-05-07T05:18:40;11.30;;;7.97;;
12784;SDS011;6456;42.680;23.260;2023-05-07T05:21:06;12.10;;;8.53;;
12784;SDS011;6456;42.680;23.260;2023-05-07T05:23:35;11.07;;;8.87;;
12784;SDS011;6456;42.680;23.260;2023-05-07T05:26:01;12.83;;;7.83;;
12784;SDS011;6456;42.680;23.260;2023-05-07T05:28:28;10.17;;;8.00;;
12784;SDS011;6456;42.680;23.260;2023-05-07T05:30:58;10.97;;;8.33;;
12784;SDS011;6456;42.680;23.260;2023-05-07T05:33:25;8.90;;;8.10;;
12784;SDS011;6456;42.680;23.260;2023-05-07T05:35:53;9.93;;;8.70;;
12784;SDS011;6456;42.680;23.260;2023-05-07T05:38:20;9.57;;;8.67;;
12784;SDS011;6456;42.680;23.260;2023-05-07T05:40:48;10.57;;;8.33;;
12784;SDS011;6456;42.680;23.260;2023-05-07T05:43:15;9.43;;;8.43;;
12784;SDS011;6456;42.680;23.260;2023-05-07T05:45:42;9.87;;;8.07;;
12784;SDS011;6456;42.680;23.260;2023-05-07T05:48:08;10.10;;;8.83;;
12784;SDS011;6456;42.680;23.260;2023-05-07T05:50:35;12.80;;;8.73;;
12784;SDS011;6456;42.680;23.260;2023-05-07T05:53:02;9.70;;;8.70;;
12784;SDS011;6456;42.680;23.260;2023-05-07T05:55:29;10.47;;;8.87;;
12784;SDS011;6456;42.680;23.260;2023-05-07T05:57:58;10.20;;;9.20;;
12784;SDS011;6456;42.680;23.260;2023-05-07T06:00:25;10.63;;;8.80;;
12784;SDS011;6456;42.680;23.260;2023-05-07T06:02:52;10.10;;;9.10;;
12784;SDS011;6456;42.680;23.260;2023-05-07T06:05:19;10.27;;;9.23;;
12784;SDS011;6456;42.680;23.260;2023-05-07T06:07:46;9.83;;;8.23;;
12784;SDS011;6456;42.680;23.260;2023-05-07T06:10:13;9.20;;;8.30;;
12784;SDS011;6456;42.680;23.260;2023-05-07T06:12:40;9.57;;;8.57;;
12784;SDS011;6456;42.680;23.260;2023-05-07T06:15:08;9.57;;;8.60;;
12784;SDS011;6456;42.680;23.260;2023-05-07T06:17:36;9.00;;;8.03;;
12784;SDS011;6456;42.680;23.260;2023-05-07T06:20:04;10.70;;;8.53;;
12784;SDS011;6456;42.680;23.260;2023-05-07T06:22:31;8.40;;;7.60;;
12784;SDS011;6456;42.680;23.260;2023-05-07T06:24:58;8.73;;;7.63;;
12784;SDS011;6456;42.680;23.260;2023-05-07T06:27:25;9.77;;;8.73;;
12784;SDS011;6456;42.680;23.260;2023-05-07T06:29:53;9.10;;;7.77;;
12784;SDS011;6456;42.680;23.260;2023-05-07T06:32:21;8.50;;;7.63;;
12784;SDS011;6456;42.680;23.260;2023-05-07T06:34:48;8.73;;;7.83;;
12784;SDS011;6456;42.680;23.260;2023-05-07T06:37:15;7.67;;;6.83;;
12784;SDS011;6456;42.680;23.260;2023-05-07T06:39:42;7.30;;;6.63;;
12784;SDS011;6456;42.680;23.260;2023-05-07T06:42:08;8.07;;;6.73;;
12784;SDS011;6456;42.680;23.260;2023-05-07T06:44:35;8.17;;;7.07;;
12784;SDS011;6456;42.680;23.260;2023-05-07T06:47:02;7.87;;;7.13;;
12784;SDS011;6456;42.680;23.260;2023-05-07T06:49:31;8.73;;;6.07;;
12784;SDS011;6456;42.680;23.260;2023-05-07T06:51:58;9.47;;;6.87;;
12784;SDS011;6456;42.680;23.260;2023-05-07T06:54:25;9.13;;;7.90;;
12784;SDS011;6456;42.680;23.260;2023-05-07T06:56:52;8.47;;;7.50;;
12784;SDS011;6456;42.680;23.260;2023-05-07T06:59:18;8.17;;;7.47;;
12784;SDS011;6456;42.680;23.260;2023-05-07T07:01:45;9.10;;;8.17;;
12784;SDS011;6456;42.680;23.260;2023-05-07T07:04:12;9.67;;;7.80;;
12784;SDS011;6456;42.680;23.260;2023-05-07T07:06:40;9.40;;;7.80;;
12784;SDS011;6456;42.680;23.260;2023-05-07T07:09:07;11.77;;;8.57;;
12784;SDS011;6456;42.680;23.260;2023-05-07T07:11:34;9.37;;;7.87;;
12784;SDS011;6456;42.680;23.260;2023-05-07T07:14:01;8.33;;;7.37;;
12784;SDS011;6456;42.680;23.260;2023-05-07T07:16:30;8.67;;;7.77;;
12784;SDS011;6456;42.680;23.260;2023-05-07T07:18:56;10.20;;;8.40;;
12784;SDS011;6456;42.680;23.260;2023-05-07T07:21:23;8.70;;;7.90;;
12784;SDS011;6456;42.680;23.260;2023-05-07T07:23:52;8.70;;;7.43;;
12784;SDS011;6456;42.680;23.260;2023-05-07T07:26:18;7.97;;;7.17;;
12784;SDS011;6456;42.680;23.260;2023-05-07T07:28:45;8.87;;;7.23;;
12784;SDS011;6456;42.680;23.260;2023-05-07T07:31:12;11.97;;;7.00;;
12784;SDS011;6456;42.680;23.260;2023-05-07T07:33:40;7.77;;;7.03;;
12784;SDS011;6456;42.680;23.260;2023-05-07T07:36:07;8.67;;;7.73;;
12784;SDS011;6456;42.680;23.260;2023-05-07T07:38:34;9.53;;;7.80;;
12784;SDS011;6456;42.680;23.260;2023-05-07T07:41:07;10.23;;;7.80;;
12784;SDS011;6456;42.680;23.260;2023-05-07T07:43:34;8.50;;;7.40;;
12784;SDS011;6456;42.680;23.260;2023-05-07T07:46:01;10.07;;;9.00;;
12784;SDS011;6456;42.680;23.260;2023-05-07T07:48:28;10.13;;;9.10;;
12784;SDS011;6456;42.680;23.260;2023-05-07T07:50:55;11.67;;;10.30;;
12784;SDS011;6456;42.680;23.260;2023-05-07T07:53:22;11.57;;;9.23;;
12784;SDS011;6456;42.680;23.260;2023-05-07T07:55:48;10.33;;;9.33;;
12784;SDS011;6456;42.680;23.260;2023-05-07T07:58:17;13.97;;;9.97;;
12784;SDS011;6456;42.680;23.260;2023-05-07T08:00:44;11.23;;;10.07;;
12784;SDS011;6456;42.680;23.260;2023-05-07T08:03:12;11.83;;;10.57;;
12784;SDS011;6456;42.680;23.260;2023-05-07T08:05:41;10.47;;;9.43;;
12784;SDS011;6456;42.680;23.260;2023-05-07T08:08:08;10.63;;;9.53;;
12784;SDS011;6456;42.680;23.260;2023-05-07T08:10:35;8.70;;;7.90;;
12784;SDS011;6456;42.680;23.260;2023-05-07T08:13:04;8.80;;;7.30;;
12784;SDS011;6456;42.680;23.260;2023-05-07T08:15:32;8.60;;;7.60;;
12784;SDS011;6456;42.680;23.260;2023-05-07T08:17:59;8.70;;;7.70;;
12784;SDS011;6456;42.680;23.260;2023-05-07T08:20:27;8.00;;;7.23;;
12784;SDS011;6456;42.680;23.260;2023-05-07T08:22:54;10.13;;;9.07;;
12784;SDS011;6456;42.680;23.260;2023-05-07T08:25:21;9.57;;;7.07;;
12784;SDS011;6456;42.680;23.260;2023-05-07T08:27:48;8.30;;;7.43;;
12784;SDS011;6456;42.680;23.260;2023-05-07T08:30:15;7.53;;;6.83;;
12784;SDS011;6456;42.680;23.260;2023-05-07T08:32:43;10.30;;;7.93;;
12784;SDS011;6456;42.680;23.260;2023-05-07T08:35:10;8.23;;;7.43;;
12784;SDS011;6456;42.680;23.260;2023-05-07T08:37:37;10.07;;;8.57;;
12784;SDS011;6456;42.680;23.260;2023-05-07T08:40:04;8.57;;;7.53;;
12784;SDS011;6456;42.680;23.260;2023-05-07T08:42:33;8.87;;;7.40;;
12784;SDS011;6456;42.680;23.260;2023-05-07T08:45:03;10.43;;;7.77;;
12784;SDS011;6456;42.680;23.260;2023-05-07T08:47:38;7.53;;;6.83;;
12784;SDS011;6456;42.680;23.260;2023-05-07T08:50:11;9.90;;;7.27;;
12784;SDS011;6456;42.680;23.260;2023-05-07T08:52:38;9.10;;;7.00;;
12784;SDS011;6456;42.680;23.260;2023-05-07T08:55:06;8.30;;;7.00;;
12784;SDS011;6456;42.680;23.260;2023-05-07T08:57:34;9.67;;;7.40;;
12784;SDS011;6456;42.680;23.260;2023-05-07T09:00:01;11.23;;;7.07;;
12784;SDS011;6456;42.680;23.260;2023-05-07T09:02:29;7.23;;;6.50;;
12784;SDS011;6456;42.680;23.260;2023-05-07T09:04:56;10.13;;;7.07;;
12784;SDS011;6456;42.680;23.260;2023-05-07T09:07:24;7.70;;;7.00;;
12784;SDS011;6456;42.680;23.260;2023-05-07T09:09:51;6.53;;;5.93;;
12784;SDS011;6456;42.680;23.260;2023-05-07T09:12:20;13.90;;;8.37;;
12784;SDS011;6456;42.680;23.260;2023-05-07T09:14:48;8.60;;;6.13;;
12784;SDS011;6456;42.680;23.260;2023-05-07T09:17:15;6.77;;;6.17;;
12784;SDS011;6456;42.680;23.260;2023-05-07T09:19:43;6.63;;;5.93;;
12784;SDS011;6456;42.680;23.260;2023-05-07T09:22:10;8.10;;;6.50;;
12784;SDS011;6456;42.680;23.260;2023-05-07T09:24:39;8.83;;;7.07;;
12784;SDS011;6456;42.680;23.260;2023-05-07T09:27:06;6.77;;;6.07;;
12784;SDS011;6456;42.680;23.260;2023-05-07T09:29:35;6.03;;;5.40;;
12784;SDS011;6456;42.680;23.260;2023-05-07T09:32:02;5.50;;;5.00;;
12784;SDS011;6456;42.680;23.260;2023-05-07T09:34:29;6.07;;;5.47;;
12784;SDS011;6456;42.680;23.260;2023-05-07T09:36:57;9.27;;;6.40;;
12784;SDS011;6456;42.680;23.260;2023-05-07T09:39:25;6.70;;;6.10;;
12784;SDS011;6456;42.680;23.260;2023-05-07T09:41:53;5.70;;;5.20;;
12784;SDS011;6456;42.680;23.260;2023-05-07T09:44:20;6.20;;;5.70;;
12784;SDS011;6456;42.680;23.260;2023-05-07T09:46:50;6.47;;;5.80;;
12784;SDS011;6456;42.680;23.260;2023-05-07T09:49:21;5.77;;;4.90;;
12784;SDS011;6456;42.680;23.260;2023-05-07T09:51:49;7.47;;;5.40;;
12784;SDS011;6456;42.680;23.260;2023-05-07T09:54:17;7.03;;;6.27;;
12784;SDS011;6456;42.680;23.260;2023-05-07T09:56:44;5.43;;;4.93;;
12784;SDS011;6456;42.680;23.260;2023-05-07T09:59:14;5.60;;;5.10;;
12784;SDS011;6456;42.680;23.260;2023-05-07T10:01:42;5.10;;;4.50;;
12784;SDS011;6456;42.680;23.260;2023-05-07T10:04:09;4.07;;;3.75;;
12784;SDS011;6456;42.680;23.260;2023-05-07T10:06:37;4.40;;;4.00;;
12784;SDS011;6456;42.680;23.260;2023-05-07T10:09:04;3.88;;;3.42;;
12784;SDS011;6456;42.680;23.260;2023-05-07T10:11:31;3.97;;;3.60;;
12784;SDS011;6456;42.680;23.260;2023-05-07T10:13:59;5.40;;;4.07;;
12784;SDS011;6456;42.680;23.260;2023-05-07T10:16:28;5.30;;;3.90;;
12784;SDS011;6456;42.680;23.260;2023-05-07T10:18:58;4.53;;;4.13;;
12784;SDS011;6456;42.680;23.260;2023-05-07T10:21:26;4.70;;;3.97;;
12784;SDS011;6456;42.680;23.260;2023-05-07T10:23:56;3.67;;;3.37;;
12784;SDS011;6456;42.680;23.260;2023-05-07T10:26:25;3.75;;;3.35;;
12784;SDS011;6456;42.680;23.260;2023-05-07T10:28:55;3.70;;;3.40;;
12784;SDS011;6456;42.680;23.260;2023-05-07T10:31:32;3.50;;;3.20;;
12784;SDS011;6456;42.680;23.260;2023-05-07T10:34:09;4.28;;;3.20;;
12784;SDS011;6456;42.680;23.260;2023-05-07T10:36:38;3.28;;;3.08;;
12784;SDS011;6456;42.680;23.260;2023-05-07T10:39:07;3.77;;;3.47;;
12784;SDS011;6456;42.680;23.260;2023-05-07T10:41:34;4.18;;;3.05;;
12784;SDS011;6456;42.680;23.260;2023-05-07T10:44:02;4.88;;;3.20;;
12784;SDS011;6456;42.680;23.260;2023-05-07T10:46:30;3.17;;;2.65;;
12784;SDS011;6456;42.680;23.260;2023-05-07T10:49:06;4.82;;;2.70;;
12784;SDS011;6456;42.680;23.260;2023-05-07T10:51:34;2.92;;;2.70;;
12784;SDS011;6456;42.680;23.260;2023-05-07T10:54:20;3.35;;;3.03;;
12784;SDS011;6456;42.680;23.260;2023-05-07T10:56:49;3.50;;;3.20;;
12784;SDS011;6456;42.680;23.260;2023-05-07T10:59:37;4.35;;;3.10;;
12784;SDS011;6456;42.680;23.260;2023-05-07T11:02:09;4.15;;;2.97;;
12784;SDS011;6456;42.680;23.260;2023-05-07T11:04:39;3.92;;;3.40;;
12784;SDS011;6456;42.680;23.260;2023-05-07T11:09:55;3.08;;;2.88;;
12784;SDS011;6456;42.680;23.260;2023-05-07T11:18:17;3.13;;;2.88;;
12784;SDS011;6456;42.680;23.260;2023-05-07T11:20:51;3.42;;;3.13;;
12784;SDS011;6456;42.680;23.260;2023-05-07T11:26:23;3.33;;;3.03;;
12784;SDS011;6456;42.680;23.260;2023-05-07T11:28:51;3.40;;;3.13;;
12784;SDS011;6456;42.680;23.260;2023-05-07T11:31:23;3.03;;;2.80;;
12784;SDS011;6456;42.680;23.260;2023-05-07T11:33:53;3.15;;;2.88;;
12784;SDS011;6456;42.680;23.260;2023-05-07T11:36:21;2.97;;;2.78;;
12784;SDS011;6456;42.680;23.260;2023-05-07T11:38:50;3.03;;;2.83;;
12784;SDS011;6456;42.680;23.260;2023-05-07T11:41:17;4.40;;;3.33;;
12784;SDS011;6456;42.680;23.260;2023-05-07T11:46:30;4.00;;;3.60;;
12784;SDS011;6456;42.680;23.260;2023-05-07T11:49:00;4.28;;;3.88;;
12784;SDS011;6456;42.680;23.260;2023-05-07T11:51:27;3.25;;;2.90;;
12784;SDS011;6456;42.680;23.260;2023-05-07T11:53:53;3.58;;;3.28;;
12784;SDS011;6456;42.680;23.260;2023-05-07T11:56:20;3.55;;;2.90;;
12784;SDS011;6456;42.680;23.260;2023-05-07T11:58:47;3.38;;;2.95;;
12784;SDS011;6456;42.680;23.260;2023-05-07T12:01:30;3.08;;;2.88;;
12784;SDS011;6456;42.680;23.260;2023-05-07T12:03:57;3.00;;;2.80;;
12784;SDS011;6456;42.680;23.260;2023-05-07T12:06:25;3.28;;;3.08;;
12784;SDS011;6456;42.680;23.260;2023-05-07T12:08:52;3.88;;;3.25;;
12784;SDS011;6456;42.680;23.260;2023-05-07T12:11:22;3.15;;;2.85;;
12784;SDS011;6456;42.680;23.260;2023-05-07T12:13:50;3.90;;;3.00;;
12784;SDS011;6456;42.680;23.260;2023-05-07T12:16:17;3.50;;;3.03;;
12784;SDS011;6456;42.680;23.260;2023-05-07T12:18:44;3.53;;;3.22;;
12784;SDS011;6456;42.680;23.260;2023-05-07T12:21:11;3.28;;;3.05;;
12784;SDS011;6456;42.680;23.260;2023-05-07T12:23:40;3.42;;;2.97;;
12784;SDS011;6456;42.680;23.260;2023-05-07T12:26:07;3.40;;;3.10;;
12784;SDS011;6456;42.680;23.260;2023-05-07T12:28:38;3.33;;;3.00;;
12784;SDS011;6456;42.680;23.260;2023-05-07T12:31:05;2.80;;;2.60;;
12784;SDS011;6456;42.680;23.260;2023-05-07T12:33:33;3.80;;;3.20;;
12784;SDS011;6456;42.680;23.260;2023-05-07T12:36:02;2.85;;;2.50;;
12784;SDS011;6456;42.680;23.260;2023-05-07T12:38:37;2.83;;;2.63;;
12784;SDS011;6456;42.680;23.260;2023-05-07T12:41:08;4.10;;;2.40;;
12784;SDS011;6456;42.680;23.260;2023-05-07T12:43:37;2.45;;;2.35;;
12784;SDS011;6456;42.680;23.260;2023-05-07T12:46:05;2.78;;;2.58;;
12784;SDS011;6456;42.680;23.260;2023-05-07T12:48:32;4.93;;;2.88;;
12784;SDS011;6456;42.680;23.260;2023-05-07T12:51:00;2.65;;;2.45;;
12784;SDS011;6456;42.680;23.260;2023-05-07T12:53:28;2.70;;;2.50;;
12784;SDS011;6456;42.680;23.260;2023-05-07T12:55:56;2.75;;;2.55;;
12784;SDS011;6456;42.680;23.260;2023-05-07T12:58:27;2.70;;;2.50;;
12784;SDS011;6456;42.680;23.260;2023-05-07T13:00:56;2.75;;;2.53;;
12784;SDS011;6456;42.680;23.260;2023-05-07T13:03:25;3.17;;;2.50;;
12784;SDS011;6456;42.680;23.260;2023-05-07T13:05:54;3.35;;;2.72;;
12784;SDS011;6456;42.680;23.260;2023-05-07T13:08:25;3.00;;;2.72;;
12784;SDS011;6456;42.680;23.260;2023-05-07T13:10:53;2.60;;;2.40;;
12784;SDS011;6456;42.680;23.260;2023-05-07T13:13:22;2.78;;;2.58;;
12784;SDS011;6456;42.680;23.260;2023-05-07T13:15:50;2.60;;;2.40;;
12784;SDS011;6456;42.680;23.260;2023-05-07T13:18:17;5.35;;;4.60;;
12784;SDS011;6456;42.680;23.260;2023-05-07T13:20:44;2.92;;;2.63;;
12784;SDS011;6456;42.680;23.260;2023-05-07T13:23:10;3.70;;;2.72;;
12784;SDS011;6456;42.680;23.260;2023-05-07T13:25:37;2.40;;;2.20;;
12784;SDS011;6456;42.680;23.260;2023-05-07T13:28:04;2.47;;;2.30;;
12784;SDS011;6456;42.680;23.260;2023-05-07T13:30:31;3.00;;;2.75;;
12784;SDS011;6456;42.680;23.260;2023-05-07T13:32:59;3.35;;;3.05;;
12784;SDS011;6456;42.680;23.260;2023-05-07T13:35:26;3.42;;;2.83;;
12784;SDS011;6456;42.680;23.260;2023-05-07T13:37:53;2.70;;;2.50;;
12784;SDS011;6456;42.680;23.260;2023-05-07T13:40:20;2.63;;;2.42;;
12784;SDS011;6456;42.680;23.260;2023-05-07T13:42:47;2.47;;;2.35;;
12784;SDS011;6456;42.680;23.260;2023-05-07T13:45:15;2.80;;;2.60;;
12784;SDS011;6456;42.680;23.260;2023-05-07T13:47:42;3.88;;;3.47;;
12784;SDS011;6456;42.680;23.260;2023-05-07T13:50:11;2.97;;;2.78;;
12784;SDS011;6456;42.680;23.260;2023-05-07T13:52:40;3.53;;;2.40;;
12784;SDS011;6456;42.680;23.260;2023-05-07T13:55:11;3.90;;;3.60;;
12784;SDS011;6456;42.680;23.260;2023-05-07T13:57:38;2.60;;;2.50;;
12784;SDS011;6456;42.680;23.260;2023-05-07T14:00:05;2.88;;;2.67;;
12784;SDS011;6456;42.680;23.260;2023-05-07T14:02:32;2.60;;;2.40;;
12784;SDS011;6456;42.680;23.260;2023-05-07T14:04:59;2.95;;;2.63;;
12784;SDS011;6456;42.680;23.260;2023-05-07T14:07:29;2.95;;;2.75;;
12784;SDS011;6456;42.680;23.260;2023-05-07T14:09:56;2.70;;;2.50;;
12784;SDS011;6456;42.680;23.260;2023-05-07T14:12:23;2.97;;;2.40;;
12784;SDS011;6456;42.680;23.260;2023-05-07T14:14:50;2.72;;;2.47;;
12784;SDS011;6456;42.680;23.260;2023-05-07T14:17:18;2.63;;;2.50;;
12784;SDS011;6456;42.680;23.260;2023-05-07T14:19:45;2.70;;;2.50;;
12784;SDS011;6456;42.680;23.260;2023-05-07T14:22:13;3.15;;;2.95;;
12784;SDS011;6456;42.680;23.260;2023-05-07T14:24:42;2.60;;;2.40;;
12784;SDS011;6456;42.680;23.260;2023-05-07T14:27:08;3.80;;;3.42;;
12784;SDS011;6456;42.680;23.260;2023-05-07T14:29:35;2.50;;;2.30;;
12784;SDS011;6456;42.680;23.260;2023-05-07T14:32:03;2.50;;;2.30;;
12784;SDS011;6456;42.680;23.260;2023-05-07T14:34:30;2.72;;;2.53;;
12784;SDS011;6456;42.680;23.260;2023-05-07T14:36:57;5.35;;;2.85;;
12784;SDS011;6456;42.680;23.260;2023-05-07T14:39:26;2.80;;;2.50;;
12784;SDS011;6456;42.680;23.260;2023-05-07T14:41:54;3.00;;;2.80;;
12784;SDS011;6456;42.680;23.260;2023-05-07T14:44:21;2.63;;;2.42;;
12784;SDS011;6456;42.680;23.260;2023-05-07T14:46:48;2.80;;;2.60;;
12784;SDS011;6456;42.680;23.260;2023-05-07T14:49:15;2.63;;;2.28;;
12784;SDS011;6456;42.680;23.260;2023-05-07T14:51:43;2.25;;;2.15;;
12784;SDS011;6456;42.680;23.260;2023-05-07T14:54:10;2.80;;;2.58;;
12784;SDS011;6456;42.680;23.260;2023-05-07T14:56:37;2.72;;;2.47;;
12784;SDS011;6456;42.680;23.260;2023-05-07T14:59:06;3.28;;;2.75;;
12784;SDS011;6456;42.680;23.260;2023-05-07T15:01:33;3.53;;;2.70;;
12784;SDS011;6456;42.680;23.260;2023-05-07T15:04:00;2.47;;;2.28;;